createdAt,value
2023-05-05T00:01:04.739Z,0.10
2023-05-05T00:03:35.397Z,0.10
2023-05-05T00:06:04.323Z,0.10
2023-05-05T00:08:32.758Z,0.10
2023-05-05T00:11:02.481Z,0.10
2023-05-05T00:13:30.364Z,0.10
2023-05-05T00:15:58.360Z,0.10
2023-05-05T00:18:26.291Z,0.10
2023-05-05T00:20:54.616Z,0.10
2023-05-05T00:23:22.632Z,0.20
2023-05-05T00:25:50.497Z,0.20
2023-05-05T00:28:19.798Z,0.20
2023-05-05T00:30:47.802Z,0.10
2023-05-05T00:33:16.001Z,0.10
2023-05-05T00:35:44.018Z,0.10
2023-05-05T00:38:11.940Z,0.10
2023-05-05T00:40:39.893Z,0.10
2023-05-05T00:43:08.593Z,0.10
2023-05-05T00:45:42.042Z,0.10
2023-05-05T00:48:10.386Z,0.10
2023-05-05T00:50:39.085Z,0.10
2023-05-05T00:53:07.857Z,0.10
2023-05-05T00:55:36.909Z,0.10
2023-05-05T00:58:05.396Z,0.10
2023-05-05T01:00:34.553Z,0.10
2023-05-05T01:03:05.271Z,0.20
2023-05-05T01:05:41.715Z,0.10
2023-05-05T01:08:24.653Z,0.10
2023-05-05T01:10:58.347Z,0.10
2023-05-05T01:13:33.628Z,0.10
2023-05-05T01:16:06.285Z,0.10
2023-05-05T01:18:43.152Z,0.10
2023-05-05T01:21:15.387Z,0.13
2023-05-05T01:24:01.747Z,0.10
2023-05-05T01:27:00.170Z,0.10
2023-05-05T01:29:48.588Z,0.10
2023-05-05T01:32:23.118Z,0.20
2023-05-05T01:35:02.377Z,0.20
2023-05-05T01:37:39.369Z,0.20
2023-05-05T01:40:10.616Z,0.10
2023-05-05T01:42:42.325Z,0.13
2023-05-05T01:45:12.464Z,0.20
2023-05-05T01:47:43.634Z,0.10
2023-05-05T01:50:13.341Z,0.15
2023-05-05T01:52:43.680Z,0.10
2023-05-05T01:55:12.615Z,0.20
2023-05-05T01:57:42.689Z,0.10
2023-05-05T02:00:12.264Z,0.10
2023-05-05T02:02:47.555Z,0.20
2023-05-05T02:05:19.262Z,0.10
2023-05-05T02:07:47.750Z,0.10
2023-05-05T02:10:16.175Z,0.10
2023-05-05T02:12:46.536Z,0.20
2023-05-05T02:15:16.819Z,0.10
2023-05-05T02:17:47.363Z,0.10
2023-05-05T02:20:17.141Z,0.20
2023-05-05T02:22:45.096Z,0.20
2023-05-05T02:25:13.212Z,0.13
2023-05-05T02:27:44.198Z,0.10
2023-05-05T02:30:15.476Z,0.10
2023-05-05T02:32:49.495Z,0.15
2023-05-05T02:35:23.501Z,0.10
2023-05-05T02:37:53.933Z,0.17
2023-05-05T02:40:26.374Z,0.10
2023-05-05T02:42:58.317Z,0.10
2023-05-05T02:45:30.920Z,0.20
2023-05-05T02:48:04.044Z,0.20
2023-05-05T02:50:35.495Z,0.20
2023-05-05T02:53:28.251Z,0.17
2023-05-05T02:56:17.414Z,0.20
2023-05-05T02:58:55.537Z,0.20
2023-05-05T03:01:34.341Z,0.20
2023-05-05T03:04:10.509Z,0.20
2023-05-05T03:06:48.398Z,0.20
2023-05-05T03:09:26.879Z,0.20
2023-05-05T03:12:02.084Z,0.20
2023-05-05T03:14:37.161Z,0.20
2023-05-05T03:17:07.320Z,0.20
2023-05-05T03:19:39.907Z,0.20
2023-05-05T03:22:08.116Z,0.10
2023-05-05T03:24:36.849Z,0.15
2023-05-05T03:27:08.941Z,0.20
2023-05-05T03:29:39.600Z,0.20
2023-05-05T03:32:12.398Z,0.15
2023-05-05T03:34:43.072Z,0.10
2023-05-05T03:37:11.098Z,0.20
2023-05-05T03:39:41.110Z,0.20
2023-05-05T03:42:10.661Z,0.10
2023-05-05T03:44:38.582Z,0.20
2023-05-05T03:47:07.084Z,0.13
2023-05-05T03:49:37.826Z,0.20
2023-05-05T03:52:07.515Z,0.20
2023-05-05T03:54:36.506Z,0.10
2023-05-05T03:57:04.447Z,0.20
2023-05-05T03:59:32.391Z,0.10
2023-05-05T04:02:00.605Z,0.20
2023-05-05T04:04:28.780Z,0.20
2023-05-05T04:06:57.049Z,0.20
2023-05-05T04:09:27.001Z,0.10
2023-05-05T04:11:54.984Z,0.20
2023-05-05T04:14:23.144Z,0.20
2023-05-05T04:16:53.256Z,0.10
2023-05-05T04:19:21.370Z,0.10
2023-05-05T04:21:50.429Z,0.10
2023-05-05T04:24:23.029Z,0.10
2023-05-05T04:26:52.817Z,0.10
2023-05-05T04:29:21.618Z,0.10
2023-05-05T04:31:50.093Z,0.10
2023-05-05T04:34:18.117Z,0.10
2023-05-05T04:36:45.965Z,0.10
2023-05-05T04:39:15.151Z,0.10
2023-05-05T04:41:43.256Z,0.10
2023-05-05T04:44:12.848Z,0.10
2023-05-05T04:46:40.880Z,0.10
2023-05-05T04:49:09.702Z,0.10
2023-05-05T04:51:37.709Z,0.00
2023-05-05T04:54:05.697Z,0.10
2023-05-05T04:56:33.631Z,0.10
2023-05-05T04:59:01.538Z,0.03
2023-05-05T05:01:31.771Z,0.00
2023-05-05T05:03:59.860Z,0.00
2023-05-05T05:06:29.335Z,0.00
2023-05-05T05:08:57.441Z,0.00
2023-05-05T05:11:25.597Z,0.00
2023-05-05T05:13:54.070Z,0.00
2023-05-05T05:16:23.044Z,0.00
2023-05-05T05:18:52.291Z,0.00
2023-05-05T05:21:20.583Z,0.00
2023-05-05T05:23:48.667Z,0.00
2023-05-05T05:26:16.695Z,0.00
2023-05-05T05:28:45.380Z,0.00
2023-05-05T05:31:13.540Z,0.00
2023-05-05T05:33:41.723Z,0.00
2023-05-05T05:36:11.698Z,0.00
2023-05-05T05:38:40.040Z,0.00
2023-05-05T05:41:08.731Z,0.00
2023-05-05T05:43:38.501Z,0.00
2023-05-05T05:46:08.995Z,0.00
2023-05-05T05:48:38.194Z,0.00
2023-05-05T05:51:06.675Z,0.00
2023-05-05T05:53:36.296Z,0.00
2023-05-05T05:56:05.046Z,0.00
2023-05-05T05:58:32.994Z,0.00
2023-05-05T06:01:01.233Z,0.00
2023-05-05T06:03:33.901Z,0.00
2023-05-05T06:06:02.377Z,0.00
2023-05-05T06:08:32.032Z,0.00
2023-05-05T06:11:01.794Z,0.00
2023-05-05T06:13:30.889Z,0.00
2023-05-05T06:15:59.793Z,0.00
2023-05-05T06:18:29.084Z,0.00
2023-05-05T06:20:58.014Z,0.00
2023-05-05T06:23:29.385Z,0.00
2023-05-05T06:26:04.419Z,0.00
2023-05-05T06:28:32.939Z,0.00
2023-05-05T06:31:01.628Z,0.00
2023-05-05T06:33:30.176Z,0.00
2023-05-05T06:35:58.484Z,0.00
2023-05-05T06:38:26.787Z,0.00
2023-05-05T06:40:55.076Z,0.00
2023-05-05T06:43:24.726Z,0.00
2023-05-05T06:45:59.001Z,0.00
2023-05-05T06:48:27.318Z,0.00
2023-05-05T06:50:55.884Z,0.00
2023-05-05T06:53:24.253Z,0.00
2023-05-05T06:55:53.400Z,0.00
2023-05-05T06:58:22.039Z,0.00
2023-05-05T07:00:54.217Z,0.00
2023-05-05T07:03:22.595Z,0.00
2023-05-05T07:05:50.948Z,0.00
2023-05-05T07:08:19.217Z,0.00
2023-05-05T07:10:47.982Z,0.00
2023-05-05T07:13:17.565Z,0.00
2023-05-05T07:15:46.717Z,0.00
2023-05-05T07:18:17.275Z,0.00
2023-05-05T07:20:45.823Z,0.00
2023-05-05T07:23:14.228Z,0.00
2023-05-05T07:25:42.556Z,0.00
2023-05-05T07:28:11.231Z,0.00
2023-05-05T07:30:39.650Z,0.00
2023-05-05T07:33:08.150Z,0.00
2023-05-05T07:35:38.156Z,0.00
2023-05-05T07:38:07.720Z,0.00
2023-05-05T07:40:37.083Z,0.00
2023-05-05T07:43:05.493Z,0.00
2023-05-05T07:45:33.913Z,0.00
2023-05-05T07:48:02.247Z,0.00
2023-05-05T07:50:30.678Z,0.00
2023-05-05T07:53:10.605Z,0.00
2023-05-05T07:55:42.453Z,0.00
2023-05-05T07:58:11.723Z,0.00
2023-05-05T08:00:40.040Z,0.00
2023-05-05T08:03:11.318Z,0.00
2023-05-05T08:05:40.725Z,0.00
2023-05-05T08:08:10.544Z,0.00
2023-05-05T08:10:38.873Z,0.00
2023-05-05T08:13:07.379Z,0.00
2023-05-05T08:15:35.961Z,0.00
2023-05-05T08:18:04.391Z,0.00
2023-05-05T08:20:32.763Z,0.00
2023-05-05T08:23:01.036Z,0.00
2023-05-05T08:25:30.996Z,0.00
2023-05-05T08:27:59.250Z,0.00
2023-05-05T08:30:27.845Z,0.00
2023-05-05T08:32:56.486Z,0.00
2023-05-05T08:35:24.780Z,0.00
2023-05-05T08:37:53.247Z,0.00
2023-05-05T08:40:22.862Z,0.00
2023-05-05T08:42:52.598Z,0.00
2023-05-05T08:45:20.809Z,0.00
2023-05-05T08:47:49.466Z,0.00
2023-05-05T08:50:19.081Z,0.00
2023-05-05T08:52:51.285Z,0.00
2023-05-05T08:55:24.442Z,0.00
2023-05-05T08:57:54.764Z,0.00
2023-05-05T09:00:23.749Z,0.00
2023-05-05T09:02:52.499Z,0.00
2023-05-05T09:05:20.731Z,0.00
2023-05-05T09:07:49.129Z,0.00
2023-05-05T09:10:17.371Z,0.00
2023-05-05T09:12:45.862Z,0.00
2023-05-05T09:15:16.360Z,0.00
2023-05-05T09:17:44.828Z,0.00
2023-05-05T09:20:14.364Z,0.00
2023-05-05T09:22:43.057Z,0.00
2023-05-05T09:25:12.110Z,0.00
2023-05-05T09:27:41.981Z,0.00
2023-05-05T09:30:11.104Z,0.00
2023-05-05T09:32:48.111Z,0.00
2023-05-05T09:35:16.731Z,0.00
2023-05-05T09:37:45.238Z,0.00
2023-05-05T09:40:14.739Z,0.00
2023-05-05T09:42:44.568Z,0.00
2023-05-05T09:45:27.007Z,0.00
2023-05-05T09:48:00.297Z,0.00
2023-05-05T09:50:30.935Z,0.00
2023-05-05T09:53:00.630Z,0.00
2023-05-05T09:55:29.018Z,0.00
2023-05-05T09:57:57.528Z,0.00
2023-05-05T10:00:39.378Z,0.00
2023-05-05T10:03:09.197Z,0.00
2023-05-05T10:05:48.031Z,0.00
2023-05-05T10:08:16.318Z,0.00
2023-05-05T10:10:48.420Z,0.00
2023-05-05T10:13:17.350Z,0.00
2023-05-05T10:15:46.309Z,0.00
2023-05-05T10:18:16.733Z,0.00
2023-05-05T10:20:45.737Z,0.00
2023-05-05T10:23:16.662Z,0.00
2023-05-05T10:25:48.552Z,0.00
2023-05-05T10:28:22.138Z,0.00
2023-05-05T10:30:53.297Z,0.00
2023-05-05T10:35:58.928Z,0.00
2023-05-05T10:38:29.805Z,0.00
2023-05-05T10:41:00.221Z,0.00
2023-05-05T10:43:29.446Z,0.00
2023-05-05T10:45:57.746Z,0.00
2023-05-05T10:48:34.689Z,0.00
2023-05-05T10:51:35.190Z,0.00
2023-05-05T10:54:13.030Z,0.00
2023-05-05T10:56:43.318Z,0.00
2023-05-05T10:59:44.640Z,0.00
2023-05-05T11:02:24.948Z,0.00
2023-05-05T11:05:21.769Z,0.00
2023-05-05T11:07:51.657Z,0.00
2023-05-05T11:10:22.987Z,0.00
2023-05-05T11:13:21.440Z,0.00
2023-05-05T11:15:54.136Z,0.00
2023-05-05T11:18:35.838Z,0.00
2023-05-05T11:21:16.570Z,0.00
2023-05-05T11:23:46.984Z,0.00
2023-05-05T11:26:16.341Z,0.00
2023-05-05T11:29:04.716Z,0.00
2023-05-05T11:31:33.111Z,0.00
2023-05-05T11:34:27.721Z,0.00
2023-05-05T11:37:02.084Z,0.00
2023-05-05T11:39:51.118Z,0.00
2023-05-05T11:42:25.531Z,0.00
2023-05-05T11:44:54.100Z,0.00
2023-05-05T11:47:32.527Z,0.00
2023-05-05T11:50:18.108Z,0.00
2023-05-05T11:52:48.223Z,0.00
2023-05-05T11:55:22.099Z,0.00
2023-05-05T11:57:50.223Z,0.00
2023-05-05T12:00:18.845Z,0.00
2023-05-05T12:02:47.538Z,0.00
2023-05-05T12:05:22.298Z,0.00
2023-05-05T12:07:58.341Z,0.00
2023-05-05T12:10:26.711Z,0.00
2023-05-05T12:12:55.605Z,0.00
2023-05-05T12:15:31.726Z,0.00
2023-05-05T12:18:02.343Z,0.00
2023-05-05T12:20:33.574Z,0.00
2023-05-05T12:23:04.761Z,0.00
2023-05-05T12:25:38.125Z,0.00
2023-05-05T12:28:07.171Z,0.00
2023-05-05T12:30:35.877Z,0.00
2023-05-05T12:33:05.091Z,0.00
2023-05-05T12:35:33.431Z,0.00
2023-05-05T12:38:03.207Z,0.00
2023-05-05T12:40:47.755Z,0.00
2023-05-05T12:43:26.771Z,0.00
2023-05-05T12:46:06.585Z,0.00
2023-05-05T12:48:35.811Z,0.00
2023-05-05T12:51:20.063Z,0.00
2023-05-05T12:54:01.752Z,0.00
2023-05-05T12:56:35.050Z,0.00
2023-05-05T12:59:04.383Z,0.00
2023-05-05T13:01:32.678Z,0.00
2023-05-05T13:04:12.171Z,0.00
2023-05-05T13:06:40.976Z,0.00
2023-05-05T13:09:11.262Z,0.00
2023-05-05T13:11:40.157Z,0.00
2023-05-05T13:14:08.794Z,0.00
2023-05-05T13:16:36.881Z,0.00
2023-05-05T13:19:05.023Z,0.00
2023-05-05T13:21:33.247Z,0.00
2023-05-05T13:24:08.687Z,0.00
2023-05-05T13:26:50.769Z,0.00
2023-05-05T13:29:18.887Z,0.00
2023-05-05T13:31:47.217Z,0.00
2023-05-05T13:34:15.388Z,0.00
2023-05-05T13:36:43.325Z,0.00
2023-05-05T13:39:11.283Z,0.00
2023-05-05T13:41:39.191Z,0.00
2023-05-05T13:44:08.465Z,0.00
2023-05-05T13:46:36.537Z,0.00
2023-05-05T13:49:04.763Z,0.00
2023-05-05T13:51:34.683Z,0.00
2023-05-05T13:54:03.001Z,0.00
2023-05-05T13:56:31.147Z,0.00
2023-05-05T13:58:59.330Z,0.00
2023-05-05T14:01:29.019Z,0.00
2023-05-05T14:03:57.765Z,0.00
2023-05-05T14:06:26.510Z,0.00
2023-05-05T14:08:54.598Z,0.00
2023-05-05T14:11:22.898Z,0.00
2023-05-05T14:13:52.060Z,0.00
2023-05-05T14:16:19.998Z,0.00
2023-05-05T14:18:49.704Z,0.00
2023-05-05T14:21:17.595Z,0.00
2023-05-05T14:23:45.421Z,0.00
2023-05-05T14:26:13.347Z,0.00
2023-05-05T14:28:42.308Z,0.00
2023-05-05T14:31:11.199Z,0.00
2023-05-05T14:33:39.404Z,0.00
2023-05-05T14:36:12.210Z,0.00
2023-05-05T14:38:42.111Z,0.00
2023-05-05T14:41:10.161Z,0.00
2023-05-05T14:43:39.182Z,0.00
2023-05-05T14:46:07.772Z,0.00
2023-05-05T14:48:36.033Z,0.00
2023-05-05T14:51:04.691Z,0.00
2023-05-05T14:53:35.154Z,0.00
2023-05-05T14:56:03.291Z,0.00
2023-05-05T14:58:31.468Z,0.00
2023-05-05T15:01:00.730Z,0.00
2023-05-05T15:03:28.854Z,0.00
2023-05-05T15:05:56.884Z,0.00
2023-05-05T15:08:24.829Z,0.00
2023-05-05T15:10:54.355Z,0.00
2023-05-05T15:13:22.389Z,0.00
2023-05-05T15:15:51.377Z,0.00
2023-05-05T15:18:19.489Z,0.00
2023-05-05T15:20:47.439Z,0.00
2023-05-05T15:23:16.064Z,0.00
2023-05-05T15:25:44.010Z,0.00
2023-05-05T15:28:13.229Z,0.00
2023-05-05T15:30:42.569Z,0.00
2023-05-05T15:33:10.478Z,0.00
2023-05-05T15:35:38.558Z,0.00
2023-05-05T15:38:06.480Z,0.00
2023-05-05T15:40:34.388Z,0.00
2023-05-05T15:43:02.354Z,0.00
2023-05-05T15:45:31.614Z,0.00
2023-05-05T15:47:59.861Z,0.00
2023-05-05T15:50:28.125Z,0.00
2023-05-05T15:52:56.887Z,0.00
2023-05-05T15:55:25.523Z,0.00
2023-05-05T15:57:53.503Z,0.00
2023-05-05T16:00:22.375Z,0.00
2023-05-05T16:02:51.817Z,0.00
2023-05-05T16:05:21.420Z,0.00
2023-05-05T16:07:50.887Z,0.00
2023-05-05T16:10:20.461Z,0.00
2023-05-05T16:12:48.579Z,0.00
2023-05-05T16:15:16.692Z,0.00
2023-05-05T16:17:44.555Z,0.00
2023-05-05T16:20:14.345Z,0.00
2023-05-05T16:22:42.313Z,0.00
2023-05-05T16:25:11.083Z,0.00
2023-05-05T16:27:39.183Z,0.00
2023-05-05T16:30:08.835Z,0.00
2023-05-05T16:32:36.698Z,0.00
2023-05-05T16:35:04.674Z,0.00
2023-05-05T16:37:34.059Z,0.00
2023-05-05T16:40:04.526Z,0.00
2023-05-05T16:42:32.333Z,0.00
2023-05-05T16:45:00.421Z,0.00
2023-05-05T16:47:28.290Z,0.00
2023-05-05T16:49:56.648Z,0.00
2023-05-05T16:52:24.691Z,0.00
2023-05-05T16:54:55.663Z,0.00
2023-05-05T16:57:23.870Z,0.00
2023-05-05T16:59:52.177Z,0.00
2023-05-05T17:02:20.052Z,0.00
2023-05-05T17:04:48.012Z,0.00
2023-05-05T17:07:15.881Z,0.00
2023-05-05T17:09:43.965Z,0.00
2023-05-05T17:12:13.310Z,0.00
2023-05-05T17:14:41.482Z,0.00
2023-05-05T17:17:09.479Z,0.00
2023-05-05T17:19:37.471Z,0.00
2023-05-05T17:22:05.372Z,0.00
2023-05-05T17:24:33.209Z,0.00
2023-05-05T17:27:01.980Z,0.00
2023-05-05T17:29:31.208Z,0.00
2023-05-05T17:31:59.396Z,0.00
2023-05-05T17:34:27.268Z,0.00
2023-05-05T17:36:55.117Z,0.00
2023-05-05T17:39:23.067Z,0.00
2023-05-05T17:41:51.305Z,0.00
2023-05-05T17:44:19.204Z,0.00
2023-05-05T17:46:48.436Z,0.00
2023-05-05T17:49:16.813Z,0.00
2023-05-05T17:52:11.002Z,0.00
2023-05-05T17:54:38.950Z,0.00
2023-05-05T17:57:06.898Z,0.00
2023-05-05T17:59:34.972Z,0.00
2023-05-05T18:02:04.276Z,0.10
2023-05-05T18:04:32.789Z,0.00
2023-05-05T18:07:00.794Z,0.00
2023-05-05T18:09:28.675Z,0.00
2023-05-05T18:11:56.648Z,0.00
2023-05-05T18:14:24.832Z,0.00
2023-05-05T18:16:53.800Z,0.10
2023-05-05T18:19:24.290Z,0.00
2023-05-05T18:21:54.492Z,0.00
2023-05-05T18:24:22.509Z,0.00
2023-05-05T18:26:52.028Z,0.00
2023-05-05T18:29:21.516Z,0.00
2023-05-05T18:31:52.022Z,0.00
2023-05-05T18:34:20.579Z,0.00
2023-05-05T18:36:54.455Z,0.00
2023-05-05T18:39:22.292Z,0.00
2023-05-05T18:41:50.249Z,0.00
2023-05-05T18:44:20.142Z,0.00
2023-05-05T18:46:49.317Z,0.00
2023-05-05T18:49:17.263Z,0.00
2023-05-05T18:51:45.273Z,0.00
2023-05-05T18:54:14.483Z,0.00
2023-05-05T18:56:42.525Z,0.00
2023-05-05T18:59:10.387Z,0.00
2023-05-05T19:01:38.224Z,0.00
2023-05-05T19:04:15.471Z,0.00
2023-05-05T19:06:46.843Z,0.00
2023-05-05T19:09:16.155Z,0.00
2023-05-05T19:11:44.261Z,0.00
2023-05-05T19:14:12.065Z,0.00
2023-05-05T19:16:39.953Z,0.00
2023-05-05T19:19:07.845Z,0.00
2023-05-05T19:21:36.173Z,0.10
2023-05-05T19:24:04.175Z,0.00
2023-05-05T19:26:33.438Z,0.00
2023-05-05T19:29:01.301Z,0.00
2023-05-05T19:31:30.866Z,0.05
2023-05-05T19:34:01.706Z,0.00
2023-05-05T19:36:29.761Z,0.03
2023-05-05T19:38:57.623Z,0.00
2023-05-05T19:41:25.903Z,0.00
2023-05-05T19:43:55.091Z,0.00
2023-05-05T19:46:24.009Z,0.00
2023-05-05T19:48:52.380Z,0.00
2023-05-05T19:51:20.542Z,0.00
2023-05-05T19:54:15.967Z,0.00
2023-05-05T19:56:44.112Z,0.00
2023-05-05T19:59:13.437Z,0.00
2023-05-05T20:01:41.508Z,0.00
2023-05-05T20:04:09.510Z,0.00
2023-05-05T20:06:37.621Z,0.00
2023-05-05T20:09:05.881Z,0.00
2023-05-05T20:11:34.202Z,0.00
2023-05-05T20:14:02.377Z,0.00
2023-05-05T20:16:31.756Z,0.00
2023-05-05T20:18:59.912Z,0.00
2023-05-05T20:21:27.850Z,0.05
2023-05-05T20:23:55.890Z,0.10
2023-05-05T20:26:24.394Z,0.00
2023-05-05T20:28:52.253Z,0.00
2023-05-05T20:31:20.495Z,0.00
2023-05-05T20:33:49.813Z,0.00
2023-05-05T20:36:18.438Z,0.10
2023-05-05T20:38:46.342Z,0.10
2023-05-05T20:41:14.254Z,0.00
2023-05-05T20:43:42.085Z,0.00
2023-05-05T20:46:12.912Z,0.10
2023-05-05T20:48:42.995Z,0.00
2023-05-05T20:51:12.593Z,0.00
2023-05-05T20:53:40.650Z,0.00
2023-05-05T20:56:09.225Z,0.00
2023-05-05T20:58:37.343Z,0.05
2023-05-05T21:01:05.348Z,0.10
2023-05-05T21:03:33.271Z,0.00
2023-05-05T21:06:01.201Z,0.08
2023-05-05T21:08:30.522Z,0.00
2023-05-05T21:10:58.349Z,0.00
2023-05-05T21:13:26.268Z,0.10
2023-05-05T21:15:54.366Z,0.00
2023-05-05T21:18:22.359Z,0.10
2023-05-05T21:20:50.399Z,0.10
2023-05-05T21:23:18.254Z,0.00
2023-05-05T21:25:48.006Z,0.03
2023-05-05T21:28:16.004Z,0.00
2023-05-05T21:30:45.268Z,0.00
2023-05-05T21:33:16.060Z,0.00
2023-05-05T21:35:43.933Z,0.03
2023-05-05T21:38:11.928Z,0.00
2023-05-05T21:40:39.954Z,0.00
2023-05-05T21:43:09.245Z,0.00
2023-05-05T21:45:37.214Z,0.00
2023-05-05T21:48:05.511Z,0.10
2023-05-05T21:50:33.661Z,0.00
2023-05-05T21:53:01.621Z,0.00
2023-05-05T21:55:29.953Z,0.00
2023-05-05T21:57:58.011Z,0.00
2023-05-05T22:00:27.770Z,0.00
2023-05-05T22:02:55.957Z,0.00
2023-05-05T22:05:24.095Z,0.00
2023-05-05T22:07:52.111Z,0.10
2023-05-05T22:10:20.049Z,0.10
2023-05-05T22:12:48.065Z,0.00
2023-05-05T22:15:19.293Z,0.00
2023-05-05T22:17:48.841Z,0.10
2023-05-05T22:20:17.178Z,0.10
2023-05-05T22:22:46.018Z,0.10
2023-05-05T22:25:14.021Z,0.10
2023-05-05T22:27:41.885Z,0.10
2023-05-05T22:30:10.875Z,0.00
2023-05-05T22:32:38.867Z,0.08
2023-05-05T22:35:09.228Z,0.10
2023-05-05T22:37:37.318Z,0.00
2023-05-05T22:40:06.139Z,0.00
2023-05-05T22:42:34.379Z,0.10
2023-05-05T22:45:02.362Z,0.00
2023-05-05T22:47:30.973Z,0.00
2023-05-05T22:49:58.940Z,0.10
2023-05-05T22:52:29.005Z,0.00
2023-05-05T22:54:57.503Z,0.10
2023-05-05T22:57:25.707Z,0.00
2023-05-05T22:59:53.860Z,0.00
2023-05-05T23:02:21.902Z,0.00
2023-05-05T23:04:51.118Z,0.05
2023-05-05T23:07:19.165Z,0.10
2023-05-05T23:09:49.180Z,0.05
2023-05-05T23:12:16.995Z,0.10
2023-05-05T23:14:45.603Z,0.10
2023-05-05T23:17:13.508Z,0.10
2023-05-05T23:19:41.463Z,0.10
2023-05-05T23:22:09.429Z,0.00
2023-05-05T23:24:37.347Z,0.03
2023-05-05T23:27:06.672Z,0.10
2023-05-05T23:29:34.666Z,0.00
2023-05-05T23:32:02.685Z,0.10
2023-05-05T23:34:30.673Z,0.10
2023-05-05T23:36:58.531Z,0.10
2023-05-05T23:39:26.443Z,0.10
2023-05-05T23:41:54.438Z,0.10
2023-05-05T23:44:23.732Z,0.10
2023-05-05T23:46:51.931Z,0.10
2023-05-05T23:49:19.892Z,0.03
2023-05-05T23:51:47.853Z,0.10
2023-05-05T23:54:15.761Z,0.10
2023-05-05T23:56:43.722Z,0.00
2023-05-05T23:59:11.603Z,0.10
